sensor_id;sensor_type;location;lat;lon;timestamp;P1;durP1;ratioP1;P2;durP2;ratioP2
63350;SDS011;54336;51.058;17.040;2022-10-15T00:00:03;28.13;;;12.07;;
63350;SDS011;54336;51.058;17.040;2022-10-15T00:05:56;24.30;;;10.93;;
63350;SDS011;54336;51.058;17.040;2022-10-15T00:11:49;25.97;;;11.03;;
63350;SDS011;54336;51.058;17.040;2022-10-15T00:17:42;26.70;;;10.80;;
63350;SDS011;54336;51.058;17.040;2022-10-15T00:23:36;29.23;;;11.30;;
63350;SDS011;54336;51.058;17.040;2022-10-15T00:29:28;26.00;;;10.27;;
63350;SDS011;54336;51.058;17.040;2022-10-15T00:35:20;27.63;;;11.32;;
63350;SDS011;54336;51.058;17.040;2022-10-15T00:41:14;24.20;;;10.35;;
63350;SDS011;54336;51.058;17.040;2022-10-15T00:53:15;25.45;;;11.63;;
63350;SDS011;54336;51.058;17.040;2022-10-15T00:59:07;26.95;;;10.55;;
63350;SDS011;54336;51.058;17.040;2022-10-15T01:05:00;28.95;;;11.93;;
63350;SDS011;54336;51.058;17.040;2022-10-15T01:41:09;21.63;;;10.70;;
63350;SDS011;54336;51.058;17.040;2022-10-15T01:47:11;30.90;;;11.75;;
63350;SDS011;54336;51.058;17.040;2022-10-15T01:53:07;25.33;;;10.18;;
63350;SDS011;54336;51.058;17.040;2022-10-15T01:59:01;24.60;;;10.70;;
63350;SDS011;54336;51.058;17.040;2022-10-15T02:04:55;26.43;;;10.67;;
63350;SDS011;54336;51.058;17.040;2022-10-15T02:10:49;26.33;;;10.30;;
63350;SDS011;54336;51.058;17.040;2022-10-15T02:22:43;29.15;;;11.88;;
63350;SDS011;54336;51.058;17.040;2022-10-15T02:28:40;29.35;;;11.30;;
63350;SDS011;54336;51.058;17.040;2022-10-15T02:34:34;20.23;;;8.80;;
63350;SDS011;54336;51.058;17.040;2022-10-15T02:40:28;25.08;;;10.20;;
63350;SDS011;54336;51.058;17.040;2022-10-15T02:46:23;25.08;;;9.57;;
63350;SDS011;54336;51.058;17.040;2022-10-15T02:52:15;23.90;;;9.35;;
63350;SDS011;54336;51.058;17.040;2022-10-15T02:58:07;18.85;;;9.00;;
63350;SDS011;54336;51.058;17.040;2022-10-15T03:04:00;32.30;;;10.77;;
63350;SDS011;54336;51.058;17.040;2022-10-15T03:09:54;20.45;;;8.93;;
63350;SDS011;54336;51.058;17.040;2022-10-15T03:15:47;23.50;;;9.63;;
63350;SDS011;54336;51.058;17.040;2022-10-15T03:21:39;23.17;;;9.30;;
63350;SDS011;54336;51.058;17.040;2022-10-15T03:27:38;25.98;;;11.45;;
63350;SDS011;54336;51.058;17.040;2022-10-15T03:33:42;22.88;;;10.50;;
63350;SDS011;54336;51.058;17.040;2022-10-15T03:39:35;29.17;;;10.87;;
63350;SDS011;54336;51.058;17.040;2022-10-15T03:45:30;23.25;;;10.43;;
63350;SDS011;54336;51.058;17.040;2022-10-15T03:51:35;16.23;;;7.85;;
63350;SDS011;54336;51.058;17.040;2022-10-15T03:57:34;21.85;;;9.10;;
63350;SDS011;54336;51.058;17.040;2022-10-15T04:03:30;26.25;;;9.80;;
63350;SDS011;54336;51.058;17.040;2022-10-15T04:09:25;24.13;;;9.18;;
63350;SDS011;54336;51.058;17.040;2022-10-15T04:15:34;22.85;;;10.98;;
63350;SDS011;54336;51.058;17.040;2022-10-15T04:21:33;29.38;;;10.88;;
63350;SDS011;54336;51.058;17.040;2022-10-15T04:27:28;23.65;;;9.80;;
63350;SDS011;54336;51.058;17.040;2022-10-15T04:33:30;23.02;;;10.25;;
63350;SDS011;54336;51.058;17.040;2022-10-15T04:39:24;34.13;;;13.13;;
63350;SDS011;54336;51.058;17.040;2022-10-15T04:45:16;24.52;;;10.05;;
63350;SDS011;54336;51.058;17.040;2022-10-15T04:51:11;38.50;;;11.25;;
63350;SDS011;54336;51.058;17.040;2022-10-15T04:57:27;28.98;;;11.02;;
63350;SDS011;54336;51.058;17.040;2022-10-15T05:03:19;25.45;;;9.88;;
63350;SDS011;54336;51.058;17.040;2022-10-15T05:09:22;31.23;;;12.00;;
63350;SDS011;54336;51.058;17.040;2022-10-15T05:15:15;31.17;;;11.47;;
63350;SDS011;54336;51.058;17.040;2022-10-15T05:21:09;27.38;;;11.55;;
63350;SDS011;54336;51.058;17.040;2022-10-15T05:32:58;24.52;;;11.52;;
63350;SDS011;54336;51.058;17.040;2022-10-15T05:38:52;32.70;;;10.63;;
63350;SDS011;54336;51.058;17.040;2022-10-15T05:44:45;27.48;;;11.15;;
63350;SDS011;54336;51.058;17.040;2022-10-15T05:50:38;24.40;;;11.30;;
63350;SDS011;54336;51.058;17.040;2022-10-15T05:56:38;26.65;;;11.23;;
63350;SDS011;54336;51.058;17.040;2022-10-15T06:02:30;20.25;;;10.57;;
63350;SDS011;54336;51.058;17.040;2022-10-15T06:08:23;25.38;;;10.18;;
63350;SDS011;54336;51.058;17.040;2022-10-15T06:14:15;31.80;;;11.73;;
63350;SDS011;54336;51.058;17.040;2022-10-15T06:20:07;32.55;;;13.45;;
63350;SDS011;54336;51.058;17.040;2022-10-15T06:26:01;28.10;;;11.80;;
63350;SDS011;54336;51.058;17.040;2022-10-15T06:31:54;26.13;;;11.60;;
63350;SDS011;54336;51.058;17.040;2022-10-15T06:37:46;26.42;;;11.77;;
63350;SDS011;54336;51.058;17.040;2022-10-15T06:43:39;29.88;;;12.35;;
63350;SDS011;54336;51.058;17.040;2022-10-15T06:55:25;26.70;;;11.88;;
63350;SDS011;54336;51.058;17.040;2022-10-15T07:01:19;27.85;;;11.52;;
63350;SDS011;54336;51.058;17.040;2022-10-15T07:07:11;24.45;;;11.13;;
63350;SDS011;54336;51.058;17.040;2022-10-15T07:13:04;31.10;;;12.40;;
63350;SDS011;54336;51.058;17.040;2022-10-15T07:18:56;27.75;;;11.00;;
63350;SDS011;54336;51.058;17.040;2022-10-15T07:24:48;33.38;;;12.63;;
63350;SDS011;54336;51.058;17.040;2022-10-15T07:30:40;30.17;;;12.55;;
63350;SDS011;54336;51.058;17.040;2022-10-15T07:36:32;33.15;;;13.40;;
63350;SDS011;54336;51.058;17.040;2022-10-15T07:42:24;29.17;;;12.18;;
63350;SDS011;54336;51.058;17.040;2022-10-15T07:48:17;25.60;;;11.93;;
63350;SDS011;54336;51.058;17.040;2022-10-15T07:54:12;33.13;;;12.60;;
63350;SDS011;54336;51.058;17.040;2022-10-15T08:00:04;30.80;;;14.25;;
63350;SDS011;54336;51.058;17.040;2022-10-15T08:06:03;27.98;;;14.10;;
63350;SDS011;54336;51.058;17.040;2022-10-15T08:11:56;31.15;;;13.57;;
63350;SDS011;54336;51.058;17.040;2022-10-15T08:17:48;27.50;;;13.23;;
63350;SDS011;54336;51.058;17.040;2022-10-15T08:29:33;25.92;;;12.40;;
63350;SDS011;54336;51.058;17.040;2022-10-15T08:35:26;25.52;;;12.57;;
63350;SDS011;54336;51.058;17.040;2022-10-15T08:53:15;31.25;;;15.50;;
63350;SDS011;54336;51.058;17.040;2022-10-15T08:59:21;28.80;;;14.35;;
63350;SDS011;54336;51.058;17.040;2022-10-15T09:05:28;32.50;;;14.98;;
63350;SDS011;54336;51.058;17.040;2022-10-15T09:11:32;36.17;;;14.63;;
63350;SDS011;54336;51.058;17.040;2022-10-15T09:17:26;30.77;;;14.18;;
63350;SDS011;54336;51.058;17.040;2022-10-15T09:23:22;34.78;;;14.70;;
63350;SDS011;54336;51.058;17.040;2022-10-15T10:10:24;21.02;;;9.40;;
63350;SDS011;54336;51.058;17.040;2022-10-15T10:16:18;18.65;;;9.10;;
63350;SDS011;54336;51.058;17.040;2022-10-15T10:22:18;22.08;;;9.68;;
63350;SDS011;54336;51.058;17.040;2022-10-15T10:34:02;20.50;;;9.75;;
63350;SDS011;54336;51.058;17.040;2022-10-15T10:39:56;18.90;;;8.67;;
63350;SDS011;54336;51.058;17.040;2022-10-15T10:45:53;17.73;;;8.73;;
63350;SDS011;54336;51.058;17.040;2022-10-15T10:51:49;19.42;;;9.13;;
63350;SDS011;54336;51.058;17.040;2022-10-15T11:03:34;19.98;;;9.95;;
63350;SDS011;54336;51.058;17.040;2022-10-15T11:15:48;22.30;;;11.73;;
63350;SDS011;54336;51.058;17.040;2022-10-15T11:21:53;19.20;;;10.57;;
63350;SDS011;54336;51.058;17.040;2022-10-15T12:04:26;19.13;;;10.50;;
63350;SDS011;54336;51.058;17.040;2022-10-15T12:22:39;20.00;;;9.75;;
63350;SDS011;54336;51.058;17.040;2022-10-15T12:28:32;23.98;;;9.60;;
63350;SDS011;54336;51.058;17.040;2022-10-15T12:34:27;17.73;;;9.45;;
63350;SDS011;54336;51.058;17.040;2022-10-15T12:46:14;20.98;;;9.73;;
63350;SDS011;54336;51.058;17.040;2022-10-15T13:04:34;22.85;;;12.70;;
63350;SDS011;54336;51.058;17.040;2022-10-15T13:16:21;27.00;;;13.23;;
63350;SDS011;54336;51.058;17.040;2022-10-15T13:22:25;22.60;;;12.15;;
63350;SDS011;54336;51.058;17.040;2022-10-15T13:28:33;29.60;;;14.20;;
63350;SDS011;54336;51.058;17.040;2022-10-15T13:34:31;27.55;;;14.15;;
63350;SDS011;54336;51.058;17.040;2022-10-15T13:40:26;24.13;;;12.27;;
63350;SDS011;54336;51.058;17.040;2022-10-15T13:46:22;28.60;;;14.13;;
63350;SDS011;54336;51.058;17.040;2022-10-15T13:52:15;28.48;;;13.32;;
63350;SDS011;54336;51.058;17.040;2022-10-15T14:04:00;27.80;;;13.93;;
63350;SDS011;54336;51.058;17.040;2022-10-15T14:09:53;27.48;;;12.25;;
63350;SDS011;54336;51.058;17.040;2022-10-15T14:21:58;27.30;;;14.80;;
63350;SDS011;54336;51.058;17.040;2022-10-15T14:27:54;26.60;;;12.60;;
63350;SDS011;54336;51.058;17.040;2022-10-15T14:33:46;29.45;;;14.60;;
63350;SDS011;54336;51.058;17.040;2022-10-15T14:39:39;34.40;;;15.52;;
63350;SDS011;54336;51.058;17.040;2022-10-15T14:51:24;33.60;;;14.88;;
63350;SDS011;54336;51.058;17.040;2022-10-15T14:57:25;25.08;;;13.10;;
63350;SDS011;54336;51.058;17.040;2022-10-15T15:03:20;30.30;;;15.23;;
63350;SDS011;54336;51.058;17.040;2022-10-15T15:09:12;32.80;;;14.27;;
63350;SDS011;54336;51.058;17.040;2022-10-15T15:15:15;31.75;;;15.55;;
63350;SDS011;54336;51.058;17.040;2022-10-15T15:21:12;32.30;;;14.93;;
63350;SDS011;54336;51.058;17.040;2022-10-15T15:27:05;29.98;;;15.80;;
63350;SDS011;54336;51.058;17.040;2022-10-15T15:32:57;29.83;;;13.23;;
63350;SDS011;54336;51.058;17.040;2022-10-15T15:38:51;36.53;;;16.42;;
63350;SDS011;54336;51.058;17.040;2022-10-15T15:44:46;34.45;;;14.88;;
63350;SDS011;54336;51.058;17.040;2022-10-15T15:50:39;33.60;;;15.37;;
63350;SDS011;54336;51.058;17.040;2022-10-15T15:56:31;32.63;;;15.95;;
63350;SDS011;54336;51.058;17.040;2022-10-15T16:02:27;39.05;;;17.70;;
63350;SDS011;54336;51.058;17.040;2022-10-15T16:08:19;28.33;;;14.70;;
63350;SDS011;54336;51.058;17.040;2022-10-15T16:14:11;31.35;;;15.57;;
63350;SDS011;54336;51.058;17.040;2022-10-15T16:20:04;28.10;;;13.47;;
63350;SDS011;54336;51.058;17.040;2022-10-15T16:25:57;29.90;;;14.32;;
63350;SDS011;54336;51.058;17.040;2022-10-15T16:31:49;29.83;;;13.65;;
63350;SDS011;54336;51.058;17.040;2022-10-15T16:37:41;21.90;;;13.25;;
63350;SDS011;54336;51.058;17.040;2022-10-15T16:43:33;29.60;;;12.85;;
63350;SDS011;54336;51.058;17.040;2022-10-15T16:49:26;31.50;;;13.55;;
63350;SDS011;54336;51.058;17.040;2022-10-15T16:55:19;21.33;;;11.60;;
63350;SDS011;54336;51.058;17.040;2022-10-15T17:01:16;26.17;;;12.95;;
63350;SDS011;54336;51.058;17.040;2022-10-15T17:07:09;26.15;;;11.98;;
63350;SDS011;54336;51.058;17.040;2022-10-15T17:13:01;24.42;;;12.77;;
63350;SDS011;54336;51.058;17.040;2022-10-15T17:18:54;18.60;;;9.57;;
63350;SDS011;54336;51.058;17.040;2022-10-15T17:24:47;21.33;;;10.85;;
63350;SDS011;54336;51.058;17.040;2022-10-15T17:30:40;24.77;;;11.43;;
63350;SDS011;54336;51.058;17.040;2022-10-15T17:36:36;17.23;;;9.48;;
63350;SDS011;54336;51.058;17.040;2022-10-15T17:42:33;16.15;;;9.32;;
63350;SDS011;54336;51.058;17.040;2022-10-15T17:48:27;22.35;;;10.90;;
63350;SDS011;54336;51.058;17.040;2022-10-15T17:54:20;17.67;;;9.27;;
63350;SDS011;54336;51.058;17.040;2022-10-15T18:00:13;18.73;;;7.97;;
63350;SDS011;54336;51.058;17.040;2022-10-15T18:06:09;20.45;;;10.85;;
63350;SDS011;54336;51.058;17.040;2022-10-15T18:12:02;19.38;;;9.68;;
63350;SDS011;54336;51.058;17.040;2022-10-15T18:17:57;18.83;;;9.05;;
63350;SDS011;54336;51.058;17.040;2022-10-15T18:29:43;16.52;;;8.57;;
63350;SDS011;54336;51.058;17.040;2022-10-15T18:35:36;21.42;;;10.45;;
63350;SDS011;54336;51.058;17.040;2022-10-15T18:41:35;20.83;;;10.77;;
63350;SDS011;54336;51.058;17.040;2022-10-15T18:47:29;20.60;;;10.50;;
63350;SDS011;54336;51.058;17.040;2022-10-15T18:53:22;20.35;;;9.88;;
63350;SDS011;54336;51.058;17.040;2022-10-15T18:59:16;22.92;;;11.48;;
63350;SDS011;54336;51.058;17.040;2022-10-15T19:05:09;19.17;;;10.30;;
63350;SDS011;54336;51.058;17.040;2022-10-15T19:11:04;20.73;;;10.77;;
63350;SDS011;54336;51.058;17.040;2022-10-15T19:16:59;19.15;;;10.65;;
63350;SDS011;54336;51.058;17.040;2022-10-15T19:22:52;21.47;;;10.67;;
63350;SDS011;54336;51.058;17.040;2022-10-15T19:28:45;25.30;;;12.63;;
63350;SDS011;54336;51.058;17.040;2022-10-15T19:34:37;27.30;;;11.75;;
63350;SDS011;54336;51.058;17.040;2022-10-15T19:40:29;27.05;;;12.82;;
63350;SDS011;54336;51.058;17.040;2022-10-15T19:46:23;28.00;;;11.90;;
63350;SDS011;54336;51.058;17.040;2022-10-15T19:52:17;24.15;;;11.88;;
63350;SDS011;54336;51.058;17.040;2022-10-15T19:58:14;22.42;;;11.55;;
63350;SDS011;54336;51.058;17.040;2022-10-15T20:04:07;22.03;;;10.97;;
63350;SDS011;54336;51.058;17.040;2022-10-15T20:10:00;17.60;;;9.50;;
63350;SDS011;54336;51.058;17.040;2022-10-15T20:15:52;18.98;;;9.60;;
63350;SDS011;54336;51.058;17.040;2022-10-15T20:21:44;17.88;;;9.10;;
63350;SDS011;54336;51.058;17.040;2022-10-15T20:27:37;21.97;;;10.50;;
63350;SDS011;54336;51.058;17.040;2022-10-15T20:33:29;20.17;;;9.48;;
63350;SDS011;54336;51.058;17.040;2022-10-15T20:39:23;21.00;;;9.68;;
63350;SDS011;54336;51.058;17.040;2022-10-15T20:45:16;18.17;;;8.82;;
63350;SDS011;54336;51.058;17.040;2022-10-15T20:51:10;23.40;;;11.43;;
63350;SDS011;54336;51.058;17.040;2022-10-15T20:57:03;26.37;;;11.53;;
63350;SDS011;54336;51.058;17.040;2022-10-15T21:02:56;29.60;;;12.98;;
63350;SDS011;54336;51.058;17.040;2022-10-15T21:08:47;30.75;;;12.98;;
63350;SDS011;54336;51.058;17.040;2022-10-15T21:14:42;24.98;;;12.73;;
63350;SDS011;54336;51.058;17.040;2022-10-15T21:20:34;24.23;;;11.38;;
63350;SDS011;54336;51.058;17.040;2022-10-15T21:32:20;23.60;;;9.98;;
63350;SDS011;54336;51.058;17.040;2022-10-15T21:38:13;21.50;;;10.33;;
63350;SDS011;54336;51.058;17.040;2022-10-15T21:44:06;20.30;;;9.63;;
63350;SDS011;54336;51.058;17.040;2022-10-15T21:50:00;15.52;;;7.65;;
63350;SDS011;54336;51.058;17.040;2022-10-15T21:55:52;20.63;;;8.98;;
63350;SDS011;54336;51.058;17.040;2022-10-15T22:01:45;18.23;;;8.90;;
63350;SDS011;54336;51.058;17.040;2022-10-15T22:07:37;14.20;;;8.05;;
63350;SDS011;54336;51.058;17.040;2022-10-15T22:13:32;19.30;;;8.68;;
63350;SDS011;54336;51.058;17.040;2022-10-15T22:19:24;13.15;;;7.25;;
63350;SDS011;54336;51.058;17.040;2022-10-15T22:25:15;14.13;;;6.75;;
63350;SDS011;54336;51.058;17.040;2022-10-15T22:31:08;17.73;;;8.25;;
63350;SDS011;54336;51.058;17.040;2022-10-15T22:37:02;12.10;;;6.57;;
63350;SDS011;54336;51.058;17.040;2022-10-15T22:42:53;10.23;;;5.97;;
63350;SDS011;54336;51.058;17.040;2022-10-15T22:48:46;12.40;;;6.35;;
63350;SDS011;54336;51.058;17.040;2022-10-15T22:54:39;10.18;;;5.45;;
63350;SDS011;54336;51.058;17.040;2022-10-15T23:00:33;10.43;;;5.25;;
63350;SDS011;54336;51.058;17.040;2022-10-15T23:06:25;12.10;;;5.03;;
63350;SDS011;54336;51.058;17.040;2022-10-15T23:12:17;12.38;;;5.78;;
63350;SDS011;54336;51.058;17.040;2022-10-15T23:18:09;7.60;;;4.80;;
63350;SDS011;54336;51.058;17.040;2022-10-15T23:24:01;12.32;;;6.05;;
63350;SDS011;54336;51.058;17.040;2022-10-15T23:29:54;12.68;;;5.35;;
63350;SDS011;54336;51.058;17.040;2022-10-15T23:36:06;10.23;;;5.25;;
63350;SDS011;54336;51.058;17.040;2022-10-15T23:41:59;7.37;;;4.97;;
63350;SDS011;54336;51.058;17.040;2022-10-15T23:47:51;10.00;;;5.47;;
63350;SDS011;54336;51.058;17.040;2022-10-15T23:53:43;11.52;;;6.85;;
63350;SDS011;54336;51.058;17.040;2022-10-15T23:59:41;12.43;;;5.53;;
